»·PEaware :: N732SG KSNA-KLAX

N732SG :: KSNA-KLAX

FLIGHT INFORMATION

Flight Status: Arrived
Operator: Privately registered:
United States
More flights under this callsign
Pilot: Scott G. (88)
Aircraft: CESSNA 172 SKYHAWK
(C172)
More flights by this aircraft type
Origin: KSNA John Wayne-Orange Co
United States
Destination: KLAX Los Angeles Intl
United States
More flights between these airports :: More routes between these airports
Route: DCT
File this flight plan on PilotEdge
Remarks:
Altitude:
(Current/Filed)
2,500ft
Speed:
(Current/Filed)
110kts
Departed: 23-Mar-17 08:27 AM
Arrived: 23-Mar-17 08:52 AM
Distance/Time
Traveled:
30nm/0:24
Distance/Time
To Go:
Arrived

Flight Plot

Page will automatically refresh every two minutes.

Flight plan parsing failed; only flown route is shown


Map Options




Map Legend


Flown Route
Filed Route
Departure Airport
Arrival Airport
Navaid (VOR, NDB)
Fix

Horizontal Profiles

Position Reports

Time Latitude Longitude Heading Altitude Ground
Speed
23-Mar-17 07:45 33.675262 -117.871710 210 60ft 0kts
23-Mar-17 07:46 33.675262 -117.871710 210 60ft 0kts
23-Mar-17 07:47 33.675262 -117.871710 210 60ft 0kts
23-Mar-17 07:48 33.675262 -117.871710 210 60ft 0kts
23-Mar-17 07:49 33.675262 -117.871710 210 60ft 0kts
23-Mar-17 07:50 33.675262 -117.871710 210 60ft 0kts
23-Mar-17 07:51 33.675262 -117.871710 210 60ft 0kts
23-Mar-17 07:52 33.675261 -117.871710 210 60ft 0kts
23-Mar-17 07:53 33.675261 -117.871710 210 60ft 0kts
23-Mar-17 07:54 33.675261 -117.871710 210 60ft 0kts
23-Mar-17 07:55 33.675261 -117.871710 210 60ft 0kts
23-Mar-17 07:56 33.675261 -117.871710 210 60ft 0kts
23-Mar-17 07:57 33.675261 -117.871710 210 60ft 0kts
23-Mar-17 07:58 33.675261 -117.871710 210 60ft 0kts
23-Mar-17 07:59 33.675261 -117.871710 210 60ft 0kts
23-Mar-17 08:00 33.675261 -117.871710 210 60ft 0kts
23-Mar-17 08:01 33.675261 -117.871710 210 60ft 0kts
23-Mar-17 08:02 33.675261 -117.871710 210 60ft 0kts
23-Mar-17 08:03 33.675261 -117.871710 210 60ft 0kts
23-Mar-17 08:04 33.675261 -117.871710 210 60ft 0kts
23-Mar-17 08:05 33.675261 -117.871710 210 60ft 0kts
23-Mar-17 08:06 33.675261 -117.871710 210 60ft 0kts
23-Mar-17 08:07 33.675261 -117.871710 210 60ft 0kts
23-Mar-17 08:08 33.675261 -117.871710 210 60ft 0kts
23-Mar-17 08:09 33.675261 -117.871710 210 60ft 0kts
23-Mar-17 08:10 33.675261 -117.871710 210 60ft 0kts
23-Mar-17 08:11 33.675261 -117.871710 210 60ft 0kts
23-Mar-17 08:12 33.675261 -117.871710 210 60ft 0kts
23-Mar-17 08:13 33.675261 -117.871710 210 60ft 0kts
23-Mar-17 08:14 33.675261 -117.871710 210 60ft 0kts
23-Mar-17 08:15 33.675261 -117.871710 210 60ft 0kts
23-Mar-17 08:16 33.675261 -117.871710 210 60ft 0kts
23-Mar-17 08:17 33.675261 -117.871710 210 60ft 0kts
23-Mar-17 08:18 33.675261 -117.871710 210 60ft 0kts
23-Mar-17 08:19 33.675261 -117.871710 210 60ft 0kts
23-Mar-17 08:20 33.675261 -117.871710 210 60ft 0kts
23-Mar-17 08:21 33.674835 -117.871399 133 60ft 0kts
23-Mar-17 08:22 33.674835 -117.871399 133 60ft 0kts
23-Mar-17 08:23 33.677196 -117.869385 26 60ft 19kts
23-Mar-17 08:24 33.681211 -117.866823 84 60ft 14kts
23-Mar-17 08:25 33.681132 -117.866455 111 60ft 0kts
23-Mar-17 08:26 33.681133 -117.866455 112 60ft 0kts
23-Mar-17 08:27 33.681089 -117.866333 113 60ft 4kts
23-Mar-17 08:28 33.670405 -117.872484 208 387ft 77kts
23-Mar-17 08:29 33.658937 -117.893406 249 1196ft 87kts
23-Mar-17 08:30 33.650005 -117.923028 249 1750ft 98kts
23-Mar-17 08:31 33.658734 -117.946001 347 2343ft 96kts
23-Mar-17 08:32 33.683831 -117.951953 351 2923ft 93kts
23-Mar-17 08:33 33.709656 -117.956309 352 3480ft 98kts
23-Mar-17 08:34 33.738036 -117.960751 352 3514ft 101kts
23-Mar-17 08:35 33.765658 -117.965032 352 3514ft 100kts
23-Mar-17 08:36 33.793203 -117.969294 352 3513ft 100kts
23-Mar-17 08:37 33.820696 -117.973547 352 3511ft 100kts
23-Mar-17 08:38 33.848170 -117.977790 352 3510ft 100kts
23-Mar-17 08:39 33.872946 -117.990035 311 3387ft 109kts
23-Mar-17 08:40 33.893554 -118.018036 312 2997ft 114kts
23-Mar-17 08:41 33.914677 -118.046448 312 2496ft 114kts
23-Mar-17 08:42 33.933532 -118.075922 293 2088ft 115kts
23-Mar-17 08:43 33.944571 -118.110127 291 2012ft 104kts
23-Mar-17 08:44 33.950565 -118.129068 291 2015ft 105kts
23-Mar-17 08:45 33.958758 -118.159235 261 2015ft 105kts
23-Mar-17 08:46 33.955535 -118.193946 266 2019ft 104kts
23-Mar-17 08:47 33.953347 -118.228467 267 2020ft 104kts
23-Mar-17 08:48 33.949417 -118.262611 263 2022ft 103kts
23-Mar-17 08:49 33.945055 -118.296404 263 1881ft 104kts
23-Mar-17 08:50 33.940177 -118.329450 264 1241ft 102kts
23-Mar-17 08:51 33.938977 -118.361158 272 533ft 78kts
23-Mar-17 08:52 33.937352 -118.382808 268 123ft 53kts
23-Mar-17 08:53 33.935524 -118.390970 180 102ft 0kts
23-Mar-17 08:54 33.935484 -118.390970 181 102ft 2kts
23-Mar-17 08:55 33.934310 -118.394049 260 103ft 14kts
23-Mar-17 08:56 33.934237 -118.394810 174 105ft 0kts
23-Mar-17 08:57 33.934237 -118.394810 174 105ft 0kts

Navigation Log

Ident Type
Flight plan parsing failed, navigation log unavailable